Time;durP1;ratioP1;P1;durP2;ratioP2;P2;SDS_P1;SDS_P2;PMS_P1;PMS_P2;Temp;Humidity;BMP_temperature;BMP_pressure;BME280_temperature;BME280_humidity;BME280_pressure;Samples;Min_cycle;Max_cycle;Signal;HPM_P1;HPM_P2
2022/03/05 00:02:13;;;;;;;;;;;;;;;0.48;82.10;99679.75;5052555;28;918;-58
2022/03/05 00:04:39;;;;;;;;;;;;;;;0.43;82.35;99679.16;5052642;28;795;-58
2022/03/05 00:07:07;;;;;;;;;;;;;;;0.46;82.83;99675.78;5052567;28;795;-58
2022/03/05 00:09:32;;;;;;;;;;;;;;;0.50;82.60;99671.28;5051132;28;1886;-58
2022/03/05 00:11:59;;;;;;;;;;;;;;;0.50;83.03;99665.84;5052452;28;922;-58
2022/03/05 00:14:25;;;;;;;;;;;;;;;0.55;82.52;99665.59;5052450;28;811;-58
2022/03/05 00:16:52;;;;;;;;;;;;;;;0.58;82.80;99663.00;5052460;28;901;-58
2022/03/05 00:19:18;;;;;;;;;;;;;;;0.57;82.63;99663.34;5052275;28;835;-58
2022/03/05 00:21:46;;;;;;;;;;;;;;;0.53;82.55;99662.41;5052286;28;851;-58
2022/03/05 00:24:12;;;;;;;;;;;;;;;0.50;82.71;99661.19;5052239;28;871;-58
2022/03/05 00:26:38;;;;;;;;;;;;;;;0.43;82.95;99660.13;5052196;28;839;-59
2022/03/05 00:29:05;;;;;;;;;;;;;;;0.40;84.38;99667.84;5052097;28;1951;-59
2022/03/05 00:31:31;;;;;;;;;;;;;;;0.47;83.96;99667.31;5052135;28;795;-59
2022/03/05 00:33:58;;;;;;;;;;;;;;;0.45;83.71;99675.00;5052112;28;799;-58
2022/03/05 00:36:24;;;;;;;;;;;;;;;0.49;84.70;99673.19;5052028;28;871;-58
2022/03/05 00:38:54;;;;;;;;;;;;;;;0.52;84.30;99675.22;5051970;28;870;-58
2022/03/05 00:41:20;;;;;;;;;;;;;;;0.46;84.41;99673.84;5051951;28;811;-58
2022/03/05 00:43:46;;;;;;;;;;;;;;;0.43;84.76;99674.53;5051709;28;1273;-58
2022/03/05 00:46:13;;;;;;;;;;;;;;;0.49;84.72;99669.66;5051816;28;796;-58
2022/03/05 00:48:40;;;;;;;;;;;;;;;0.38;83.95;99672.03;5052037;28;1906;-58
2022/03/05 00:51:06;;;;;;;;;;;;;;;0.03;84.02;99679.78;5051321;28;944;-58
2022/03/05 00:53:33;;;;;;;;;;;;;;;-0.36;84.25;99674.50;5051773;28;854;-58
2022/03/05 00:56:00;;;;;;;;;;;;;;;-0.53;85.33;99671.94;5051577;28;942;-57
2022/03/05 00:58:27;;;;;;;;;;;;;;;-0.47;86.05;99673.31;5051625;28;933;-57
2022/03/05 01:00:54;;;;;;;;;;;;;;;-0.55;85.48;99671.47;5051636;28;907;-58
2022/03/05 01:03:20;;;;;;;;;;;;;;;-0.47;85.98;99673.31;5051664;28;807;-57
2022/03/05 01:05:46;;;;;;;;;;;;;;;-0.54;85.79;99673.84;5051884;28;921;-58
2022/03/05 01:08:13;;;;;;;;;;;;;;;-0.47;86.25;99673.31;5051523;28;1886;-58
2022/03/05 01:10:39;;;;;;;;;;;;;;;-0.41;86.02;99671.97;5051585;28;823;-58
2022/03/05 01:13:06;;;;;;;;;;;;;;;-0.61;85.85;99681.72;5051583;28;847;-58
2022/03/05 01:15:32;;;;;;;;;;;;;;;-0.63;86.50;99673.13;5051421;28;929;-58
2022/03/05 01:17:59;;;;;;;;;;;;;;;-0.65;86.50;99670.72;5051931;28;937;-58
2022/03/05 01:20:26;;;;;;;;;;;;;;;-0.64;86.72;99675.03;5051779;28;858;-58
2022/03/05 01:22:52;;;;;;;;;;;;;;;-0.97;86.90;99633.44;5051690;28;798;-58
2022/03/05 01:25:19;;;;;;;;;;;;;;;-0.82;87.03;99665.41;5051702;28;850;-57
2022/03/05 01:27:46;;;;;;;;;;;;;;;-0.88;87.55;99659.38;5051683;28;1953;-58
2022/03/05 01:30:12;;;;;;;;;;;;;;;-0.93;87.55;99658.78;5051718;28;849;-57
2022/03/05 01:32:39;;;;;;;;;;;;;;;-1.00;88.77;99669.34;5051381;28;860;-58
2022/03/05 01:35:06;;;;;;;;;;;;;;;-0.75;89.23;99659.47;5051600;28;811;-58
2022/03/05 01:37:33;;;;;;;;;;;;;;;-0.73;88.67;99658.00;5051462;28;818;-58
2022/03/05 01:39:58;;;;;;;;;;;;;;;-0.67;89.09;99662.13;5051828;28;815;-58
2022/03/05 01:42:25;;;;;;;;;;;;;;;-0.63;89.10;99652.19;5050975;28;1287;-58
2022/03/05 01:44:51;;;;;;;;;;;;;;;-0.68;88.58;99657.03;5051485;28;826;-57
2022/03/05 01:47:19;;;;;;;;;;;;;;;-0.93;88.30;99656.09;5051089;28;905;-57
2022/03/05 01:49:45;;;;;;;;;;;;;;;-1.12;88.33;99654.59;5051171;28;929;-57
2022/03/05 01:52:11;;;;;;;;;;;;;;;-1.24;88.54;99646.34;5051074;28;865;-57
2022/03/05 01:54:39;;;;;;;;;;;;;;;-1.33;88.37;99651.03;5051106;28;806;-58
2022/03/05 01:57:06;;;;;;;;;;;;;;;-1.58;88.24;99650.81;5051073;28;877;-59
2022/03/05 01:59:33;;;;;;;;;;;;;;;-1.64;89.10;99646.69;5051051;28;819;-59
2022/03/05 02:02:00;;;;;;;;;;;;;;;-1.49;89.62;99650.78;5051053;28;807;-59
2022/03/05 02:04:26;;;;;;;;;;;;;;;-1.47;88.81;99656.69;5054665;28;831;-59
2022/03/05 02:06:53;;;;;;;;;;;;;;;-1.51;89.25;99653.03;5054852;28;815;-59
2022/03/05 02:09:20;;;;;;;;;;;;;;;-1.52;89.11;99654.91;5054683;28;1965;-59
2022/03/05 02:11:46;;;;;;;;;;;;;;;-1.44;89.57;99661.44;5054776;28;846;-59
2022/03/05 02:14:16;;;;;;;;;;;;;;;-1.36;89.59;99657.13;5054711;28;847;-59
2022/03/05 02:16:42;;;;;;;;;;;;;;;-1.40;89.33;99659.66;5054908;28;941;-59
2022/03/05 02:19:09;;;;;;;;;;;;;;;-1.59;88.61;99653.84;5054628;28;961;-59
2022/03/05 02:21:36;;;;;;;;;;;;;;;-1.82;88.79;99651.34;5054589;28;852;-59
2022/03/05 02:24:03;;;;;;;;;;;;;;;-1.96;89.63;99650.75;5054442;28;898;-59
2022/03/05 02:26:30;;;;;;;;;;;;;;;-2.00;90.18;99650.63;5054514;28;815;-59
2022/03/05 02:28:56;;;;;;;;;;;;;;;-1.95;89.68;99660.47;5054386;28;1910;-59
2022/03/05 02:31:23;;;;;;;;;;;;;;;-1.92;89.92;99660.66;5054337;28;862;-59
2022/03/05 02:33:52;;;;;;;;;;;;;;;-1.93;89.90;99661.75;5054376;28;890;-59
2022/03/05 02:36:20;;;;;;;;;;;;;;;-1.89;89.79;99659.97;5054545;28;846;-59
2022/03/05 02:38:46;;;;;;;;;;;;;;;-1.82;90.30;99659.50;5054243;28;827;-59
2022/03/05 02:41:13;;;;;;;;;;;;;;;-1.74;90.34;99652.47;5054304;28;899;-59
2022/03/05 02:43:39;;;;;;;;;;;;;;;-1.63;90.65;99653.69;5054056;28;1407;-59
2022/03/05 02:46:06;;;;;;;;;;;;;;;-1.72;90.86;99652.94;5054121;28;858;-59
2022/03/05 02:48:35;;;;;;;;;;;;;;;-1.77;91.07;99655.81;5052793;28;1914;-59
2022/03/05 02:51:02;;;;;;;;;;;;;;;-1.80;91.26;99659.19;5054032;28;956;-59
2022/03/05 02:53:31;;;;;;;;;;;;;;;-1.86;91.02;99653.13;5053821;28;898;-59
2022/03/05 02:55:57;;;;;;;;;;;;;;;-1.70;92.05;99658.84;5054740;28;783;-59
2022/03/05 02:58:23;;;;;;;;;;;;;;;-1.26;93.03;99656.72;5053932;28;889;-59
2022/03/05 03:00:50;;;;;;;;;;;;;;;-1.21;91.95;99661.97;5054098;28;935;-59
2022/03/05 03:03:18;;;;;;;;;;;;;;;-1.18;91.77;99668.66;5053802;28;886;-59
2022/03/05 03:05:45;;;;;;;;;;;;;;;-1.02;92.51;99669.69;5053007;28;1488;-59
2022/03/05 03:08:11;;;;;;;;;;;;;;;-0.90;92.46;99667.06;5053937;28;1885;-59
2022/03/05 03:10:38;;;;;;;;;;;;;;;-0.96;91.92;99670.28;5053727;28;866;-59
2022/03/05 03:13:04;;;;;;;;;;;;;;;-1.14;91.47;99670.38;5053336;28;874;-59
2022/03/05 03:15:31;;;;;;;;;;;;;;;-1.40;91.07;99667.81;5053838;28;878;-59
2022/03/05 03:17:57;;;;;;;;;;;;;;;-1.61;91.41;99675.84;5053846;28;972;-59
2022/03/05 03:20:26;;;;;;;;;;;;;;;-1.62;92.34;99682.41;5053506;28;854;-59
2022/03/05 03:22:53;;;;;;;;;;;;;;;-1.59;92.02;99684.44;5053389;28;878;-59
2022/03/05 03:25:20;;;;;;;;;;;;;;;-1.56;92.16;99693.84;5053414;28;861;-59
2022/03/05 03:27:47;;;;;;;;;;;;;;;-1.56;91.80;99697.34;5051986;28;1882;-59
2022/03/05 03:30:13;;;;;;;;;;;;;;;-1.49;92.03;99689.53;5053311;28;925;-59
2022/03/05 03:32:40;;;;;;;;;;;;;;;-1.39;92.13;99693.78;5053324;28;846;-59
2022/03/05 03:35:07;;;;;;;;;;;;;;;-1.32;92.37;99701.44;5053157;28;846;-59
2022/03/05 03:37:34;;;;;;;;;;;;;;;-1.30;91.75;99705.41;5053220;28;795;-59
2022/03/05 03:40:03;;;;;;;;;;;;;;;-1.20;92.68;99706.94;5053011;28;934;-59
2022/03/05 03:42:30;;;;;;;;;;;;;;;-1.14;92.65;99710.28;5053332;28;1353;-59
2022/03/05 03:44:56;;;;;;;;;;;;;;;-1.05;92.71;99709.09;5053346;28;788;-59
2022/03/05 03:47:23;;;;;;;;;;;;;;;-1.06;91.91;99712.97;5053033;28;885;-59
2022/03/05 03:49:49;;;;;;;;;;;;;;;-1.20;92.01;99712.38;5053092;28;854;-59
2022/03/05 03:52:16;;;;;;;;;;;;;;;-1.23;92.00;99716.53;5052751;28;839;-59
2022/03/05 03:54:43;;;;;;;;;;;;;;;-1.18;92.37;99715.56;5052884;28;827;-58
2022/03/05 03:57:11;;;;;;;;;;;;;;;-1.17;92.20;99721.78;5052830;28;835;-59
2022/03/05 03:59:37;;;;;;;;;;;;;;;-1.21;92.37;99715.44;5052713;28;854;-59
2022/03/05 04:02:05;;;;;;;;;;;;;;;-1.23;92.45;99718.47;5052812;28;803;-59
2022/03/05 04:04:32;;;;;;;;;;;;;;;-1.24;92.50;99716.84;5052653;28;890;-59
2022/03/05 04:09:42;;;;;;;;;;;;;;;-1.13;92.47;99728.13;5052454;28;1895;-59
2022/03/05 04:12:09;;;;;;;;;;;;;;;-1.10;92.53;99727.50;5052498;28;910;-59
2022/03/05 04:14:38;;;;;;;;;;;;;;;-1.14;92.24;99734.69;5051207;28;1336;-59
2022/03/05 04:17:04;;;;;;;;;;;;;;;-1.12;92.39;99733.25;5052520;28;1013;-59
2022/03/05 04:19:31;;;;;;;;;;;;;;;-1.13;92.36;99733.56;5052301;28;827;-59
2022/03/05 04:21:57;;;;;;;;;;;;;;;-1.18;92.53;99739.97;5052243;28;859;-59
2022/03/05 04:24:24;;;;;;;;;;;;;;;-1.18;92.39;99733.75;5052271;28;831;-59
2022/03/05 04:26:50;;;;;;;;;;;;;;;-1.22;92.39;99741.75;5051488;28;803;-59
2022/03/05 04:29:17;;;;;;;;;;;;;;;-1.23;92.55;99745.59;5052179;28;1948;-59
2022/03/05 04:31:43;;;;;;;;;;;;;;;-1.16;92.90;99750.50;5052159;28;902;-59
2022/03/05 04:34:09;;;;;;;;;;;;;;;-1.08;92.99;99746.97;5052069;28;884;-59
2022/03/05 04:36:36;;;;;;;;;;;;;;;-0.93;92.90;99748.34;5052348;28;886;-59
2022/03/05 04:39:02;;;;;;;;;;;;;;;-0.78;93.03;99747.78;5052097;28;842;-59
2022/03/05 04:41:28;;;;;;;;;;;;;;;-0.67;92.86;99748.97;5051926;28;942;-59
2022/03/05 04:43:55;;;;;;;;;;;;;;;-0.51;92.77;99751.94;5051808;28;1269;-59
2022/03/05 04:46:21;;;;;;;;;;;;;;;-0.55;92.26;99745.56;5051830;28;875;-59
2022/03/05 04:48:46;;;;;;;;;;;;;;;-0.59;92.37;99747.34;5051872;28;1909;-59
2022/03/05 04:51:13;;;;;;;;;;;;;;;-0.60;92.35;99742.25;5051777;28;886;-59
2022/03/05 04:53:39;;;;;;;;;;;;;;;-0.48;92.94;99739.63;5051817;28;811;-59
2022/03/05 04:56:06;;;;;;;;;;;;;;;-0.50;92.31;99739.94;5051777;28;873;-59
2022/03/05 04:58:32;;;;;;;;;;;;;;;-0.43;93.01;99742.94;5051776;28;811;-59
2022/03/05 05:00:59;;;;;;;;;;;;;;;-0.27;92.86;99743.13;5051740;28;796;-59
2022/03/05 05:03:25;;;;;;;;;;;;;;;-0.10;92.91;99736.78;5051618;28;905;-59
2022/03/05 05:05:52;;;;;;;;;;;;;;;0.06;93.01;99744.31;5051649;28;920;-59
2022/03/05 05:08:18;;;;;;;;;;;;;;;0.16;92.95;99739.25;5051543;28;1882;-58
2022/03/05 05:10:44;;;;;;;;;;;;;;;0.13;92.67;99742.66;5051588;28;950;-59
2022/03/05 05:13:10;;;;;;;;;;;;;;;0.10;93.22;99747.94;5051652;28;839;-59
2022/03/05 05:15:37;;;;;;;;;;;;;;;0.12;93.27;99742.97;5051878;28;854;-58
2022/03/05 05:18:03;;;;;;;;;;;;;;;0.14;93.33;99744.22;5050512;28;1280;-58
2022/03/05 05:20:30;;;;;;;;;;;;;;;0.16;93.06;99747.41;5051667;28;968;-59
2022/03/05 05:22:56;;;;;;;;;;;;;;;0.27;93.33;99747.00;5051704;28;843;-59
2022/03/05 05:25:23;;;;;;;;;;;;;;;0.36;93.08;99745.81;5051692;28;871;-58
2022/03/05 05:27:49;;;;;;;;;;;;;;;0.49;93.13;99751.25;5051257;28;1921;-59
2022/03/05 05:30:15;;;;;;;;;;;;;;;0.60;92.33;99753.22;5051210;28;887;-58
2022/03/05 05:32:41;;;;;;;;;;;;;;;0.58;92.32;99766.38;5051395;28;819;-59
2022/03/05 05:35:08;;;;;;;;;;;;;;;0.56;92.14;99759.69;5051288;28;882;-59
2022/03/05 05:37:35;;;;;;;;;;;;;;;0.62;91.59;99771.94;5053652;28;882;-59
2022/03/05 05:40:02;;;;;;;;;;;;;;;0.69;91.05;99772.16;5055351;28;866;-58
2022/03/05 05:42:28;;;;;;;;;;;;;;;0.75;91.23;99784.44;5055111;28;1245;-58
2022/03/05 05:44:55;;;;;;;;;;;;;;;0.76;90.09;99783.28;5055263;28;824;-58
2022/03/05 05:47:21;;;;;;;;;;;;;;;0.72;89.44;99787.00;5055252;28;889;-59
2022/03/05 05:49:48;;;;;;;;;;;;;;;0.61;88.91;99792.09;5055076;28;1918;-58
2022/03/05 05:52:15;;;;;;;;;;;;;;;0.56;88.87;99789.59;5055160;28;807;-58
2022/03/05 05:54:41;;;;;;;;;;;;;;;0.63;88.08;99794.47;5053987;28;1291;-58
2022/03/05 05:57:07;;;;;;;;;;;;;;;0.73;87.72;99792.13;5055080;28;850;-58
2022/03/05 05:59:34;;;;;;;;;;;;;;;0.96;88.01;99791.72;5055014;28;830;-58
2022/03/05 06:02:00;;;;;;;;;;;;;;;1.29;87.01;99793.56;5055103;28;902;-58
2022/03/05 06:04:27;;;;;;;;;;;;;;;1.90;88.10;99789.97;5054892;28;840;-58
2022/03/05 06:06:53;;;;;;;;;;;;;;;2.56;86.27;99794.16;5054819;28;827;-58
2022/03/05 06:09:20;;;;;;;;;;;;;;;3.02;84.37;99791.88;5054788;28;1893;-58
2022/03/05 06:11:46;;;;;;;;;;;;;;;3.27;83.11;99789.75;5054845;28;815;-58
2022/03/05 06:14:13;;;;;;;;;;;;;;;3.36;81.56;99797.78;5054726;28;1153;-58
2022/03/05 06:16:40;;;;;;;;;;;;;;;3.19;81.05;99794.25;5054691;28;882;-58
2022/03/05 06:19:08;;;;;;;;;;;;;;;3.18;81.30;99802.78;5054550;28;953;-58
2022/03/05 06:21:34;;;;;;;;;;;;;;;3.27;80.44;99795.22;5054544;28;934;-58
2022/03/05 06:24:01;;;;;;;;;;;;;;;3.29;80.44;99795.66;5054661;28;847;-58
2022/03/05 06:26:31;;;;;;;;;;;;;;;3.21;80.40;99800.16;5054597;28;815;-58
2022/03/05 06:28:58;;;;;;;;;;;;;;;3.17;80.31;99801.22;5053202;28;1952;-58
2022/03/05 06:31:25;;;;;;;;;;;;;;;3.16;80.94;99805.88;5054447;28;902;-58
2022/03/05 06:33:51;;;;;;;;;;;;;;;3.29;80.34;99812.06;5054414;28;879;-58
2022/03/05 06:36:18;;;;;;;;;;;;;;;3.32;80.10;99808.59;5054251;28;897;-58
2022/03/05 06:38:45;;;;;;;;;;;;;;;3.38;79.79;99807.19;5054414;28;816;-58
2022/03/05 06:41:10;;;;;;;;;;;;;;;3.46;79.80;99808.16;5054246;28;937;-58
2022/03/05 06:43:37;;;;;;;;;;;;;;;3.56;79.97;99813.06;5053911;28;1435;-58
2022/03/05 06:46:03;;;;;;;;;;;;;;;3.70;79.61;99811.84;5054202;28;831;-58
2022/03/05 06:48:29;;;;;;;;;;;;;;;3.72;79.54;99821.25;5053114;28;1918;-58
2022/03/05 06:50:56;;;;;;;;;;;;;;;3.70;79.55;99822.78;5054044;28;849;-58
2022/03/05 06:53:24;;;;;;;;;;;;;;;3.66;78.99;99822.69;5052779;28;1478;-58
2022/03/05 06:55:51;;;;;;;;;;;;;;;3.76;79.51;99824.88;5053972;28;878;-58
2022/03/05 06:58:17;;;;;;;;;;;;;;;4.01;78.33;99827.34;5053929;28;1169;-58
2022/03/05 07:00:44;;;;;;;;;;;;;;;4.27;77.68;99829.50;5054179;28;859;-59
2022/03/05 07:03:11;;;;;;;;;;;;;;;4.69;76.98;99834.22;5053749;28;906;-57
2022/03/05 07:05:37;;;;;;;;;;;;;;;5.03;75.71;99831.72;5053855;28;815;-59
2022/03/05 07:08:03;;;;;;;;;;;;;;;5.42;74.83;99832.41;5053550;28;1889;-59
2022/03/05 07:10:30;;;;;;;;;;;;;;;5.72;72.63;99835.22;5069309;28;795;-59
2022/03/05 07:12:56;;;;;;;;;;;;;;;6.05;72.19;99832.97;5053663;28;914;-59
2022/03/05 07:15:23;;;;;;;;;;;;;;;6.49;71.18;99832.38;5053650;28;925;-59
2022/03/05 07:17:51;;;;;;;;;;;;;;;6.85;69.76;99841.81;5052335;28;1012;-59
2022/03/05 07:20:18;;;;;;;;;;;;;;;7.03;69.85;99838.44;5053502;28;956;-57
2022/03/05 07:22:44;;;;;;;;;;;;;;;7.29;69.77;99841.03;5053536;28;870;-59
2022/03/05 07:25:11;;;;;;;;;;;;;;;7.54;68.69;99835.75;5053667;28;929;-59
2022/03/05 07:27:38;;;;;;;;;;;;;;;7.72;67.32;99843.34;5053236;28;1939;-59
2022/03/05 07:30:05;;;;;;;;;;;;;;;7.86;65.67;99846.19;5053362;28;858;-59
2022/03/05 07:32:32;;;;;;;;;;;;;;;8.12;67.33;99834.16;5053548;28;798;-59
2022/03/05 07:34:59;;;;;;;;;;;;;;;8.23;65.56;99841.69;5053514;28;862;-58
2022/03/05 07:37:25;;;;;;;;;;;;;;;8.20;65.79;99845.22;5053295;28;838;-59
2022/03/05 07:39:52;;;;;;;;;;;;;;;8.55;65.03;99839.91;5053111;28;878;-59
2022/03/05 07:42:18;;;;;;;;;;;;;;;9.09;63.87;99845.59;5052833;28;1202;-59
2022/03/05 07:44:45;;;;;;;;;;;;;;;9.57;61.75;99849.94;5052985;28;867;-59
2022/03/05 07:47:11;;;;;;;;;;;;;;;9.69;60.89;99840.50;5052828;28;922;-58
2022/03/05 07:49:39;;;;;;;;;;;;;;;9.76;59.46;99848.75;5053080;28;1946;-58
2022/03/05 07:52:05;;;;;;;;;;;;;;;9.63;60.16;99839.31;5052904;28;881;-59
2022/03/05 07:54:32;;;;;;;;;;;;;;;9.94;59.84;99844.00;5052952;28;1054;-59
2022/03/05 07:56:58;;;;;;;;;;;;;;;10.23;58.15;99844.72;5053009;28;874;-59
2022/03/05 07:59:25;;;;;;;;;;;;;;;10.56;58.43;99842.69;5052834;28;811;-59
2022/03/05 08:01:51;;;;;;;;;;;;;;;10.84;57.27;99840.97;5052274;28;851;-59
2022/03/05 08:04:18;;;;;;;;;;;;;;;10.90;55.73;99844.84;5053159;28;897;-59
2022/03/05 08:06:44;;;;;;;;;;;;;;;11.16;54.17;99846.31;5053019;28;795;-58
2022/03/05 08:09:11;;;;;;;;;;;;;;;11.34;53.18;99850.91;5052800;28;1951;-59
2022/03/05 08:11:37;;;;;;;;;;;;;;;11.60;53.13;99849.53;5052477;28;843;-59
2022/03/05 08:14:04;;;;;;;;;;;;;;;11.36;52.77;99849.31;5052417;28;907;-59
2022/03/05 08:16:31;;;;;;;;;;;;;;;11.09;52.23;99848.31;5052417;28;890;-59
2022/03/05 08:18:59;;;;;;;;;;;;;;;10.54;55.05;99852.53;5052245;28;911;-59
2022/03/05 08:21:26;;;;;;;;;;;;;;;10.21;55.33;99855.38;5052546;28;952;-59
2022/03/05 08:23:53;;;;;;;;;;;;;;;10.01;56.74;99854.25;5052554;28;875;-59
2022/03/05 08:26:19;;;;;;;;;;;;;;;9.91;57.07;99850.31;5052181;28;925;-59
2022/03/05 08:28:46;;;;;;;;;;;;;;;9.70;57.55;99847.56;5052175;28;1886;-59
2022/03/05 08:31:12;;;;;;;;;;;;;;;9.48;58.29;99847.59;5052202;28;863;-59
2022/03/05 08:33:39;;;;;;;;;;;;;;;9.64;57.17;99840.88;5052289;28;902;-59
2022/03/05 08:36:06;;;;;;;;;;;;;;;9.63;56.58;99842.06;5050802;28;1368;-59
2022/03/05 08:38:34;;;;;;;;;;;;;;;9.38;55.37;99848.38;5052002;28;811;-59
2022/03/05 08:41:01;;;;;;;;;;;;;;;9.34;56.39;99845.59;5052225;28;923;-59
2022/03/05 08:43:28;;;;;;;;;;;;;;;9.13;55.72;99848.31;5051721;28;1479;-59
2022/03/05 08:45:56;;;;;;;;;;;;;;;8.93;55.90;99851.44;5051898;28;1135;-59
2022/03/05 08:48:22;;;;;;;;;;;;;;;8.64;55.47;99847.84;5051734;28;1989;-59
2022/03/05 08:50:49;;;;;;;;;;;;;;;8.51;55.59;99852.09;5051999;28;874;-59
2022/03/05 08:53:15;;;;;;;;;;;;;;;8.52;55.35;99848.94;5050577;28;1563;-59
2022/03/05 08:55:42;;;;;;;;;;;;;;;8.62;56.23;99850.19;5051800;28;811;-59
2022/03/05 08:58:08;;;;;;;;;;;;;;;8.92;55.46;99852.63;5050510;28;1314;-59
2022/03/05 09:00:35;;;;;;;;;;;;;;;8.96;55.48;99855.38;5051783;28;795;-59
2022/03/05 09:03:01;;;;;;;;;;;;;;;8.70;55.49;99857.28;5051589;28;915;-59
2022/03/05 09:05:28;;;;;;;;;;;;;;;8.71;56.25;99856.13;5051653;28;835;-59
2022/03/05 09:07:55;;;;;;;;;;;;;;;9.12;57.05;99853.06;5051457;28;1974;-59
2022/03/05 09:10:21;;;;;;;;;;;;;;;9.85;54.87;99851.13;5051570;28;933;-59
2022/03/05 09:12:47;;;;;;;;;;;;;;;9.89;53.08;99849.91;5051209;28;850;-59
2022/03/05 09:15:15;;;;;;;;;;;;;;;9.75;53.73;99853.50;5051515;28;808;-59
2022/03/05 09:17:42;;;;;;;;;;;;;;;9.58;54.42;99848.75;5051546;28;1036;-59
2022/03/05 09:20:09;;;;;;;;;;;;;;;9.73;55.07;99852.28;5051436;28;883;-59
2022/03/05 09:22:36;;;;;;;;;;;;;;;10.50;54.50;99843.50;5051426;28;835;-59
2022/03/05 09:25:03;;;;;;;;;;;;;;;10.93;52.65;99852.34;5051334;28;875;-59
2022/03/05 09:27:29;;;;;;;;;;;;;;;11.84;52.53;99845.75;5051417;28;826;-59
2022/03/05 09:29:56;;;;;;;;;;;;;;;12.22;49.06;99847.78;5051261;28;1874;-60
2022/03/05 09:32:22;;;;;;;;;;;;;;;12.42;48.14;99840.41;5051371;28;906;-59
2022/03/05 09:34:49;;;;;;;;;;;;;;;12.38;47.86;99836.91;5051307;28;894;-59
2022/03/05 09:37:15;;;;;;;;;;;;;;;12.48;47.78;99839.94;5051326;28;791;-60
2022/03/05 09:39:42;;;;;;;;;;;;;;;12.60;47.89;99842.19;5051206;28;882;-59
2022/03/05 09:42:09;;;;;;;;;;;;;;;12.35;46.18;99839.72;5051087;28;1242;-59
2022/03/05 09:44:38;;;;;;;;;;;;;;;12.51;46.06;99839.91;5051226;28;923;-60
2022/03/05 09:47:05;;;;;;;;;;;;;;;12.19;46.97;99841.06;5051017;28;941;-60
2022/03/05 09:49:35;;;;;;;;;;;;;;;11.58;48.85;99849.91;5051422;28;1906;-60
2022/03/05 09:52:02;;;;;;;;;;;;;;;11.72;48.21;99854.56;5051123;28;936;-60
2022/03/05 09:54:28;;;;;;;;;;;;;;;11.21;49.02;99851.38;5051103;28;968;-60
2022/03/05 09:56:55;;;;;;;;;;;;;;;11.03;49.35;99853.47;5051241;28;839;-60
2022/03/05 09:59:22;;;;;;;;;;;;;;;11.48;49.14;99850.00;5051294;28;847;-60
2022/03/05 10:01:48;;;;;;;;;;;;;;;10.99;49.08;99852.72;5051070;28;835;-59
2022/03/05 10:04:23;;;;;;;;;;;;;;;11.31;47.43;99846.19;5051066;28;830;-58
2022/03/05 10:07:08;;;;;;;;;;;;;;;11.05;47.78;99845.56;5051149;28;827;-59
2022/03/05 10:09:35;;;;;;;;;;;;;;;11.09;49.45;99845.53;5050983;28;1874;-59
2022/03/05 10:12:02;;;;;;;;;;;;;;;10.99;50.42;99838.91;5051128;28;879;-58
2022/03/05 10:14:28;;;;;;;;;;;;;;;10.91;51.09;99840.91;5050910;28;858;-59
2022/03/05 10:16:59;;;;;;;;;;;;;;;11.15;49.46;99838.41;5050997;28;989;-59
2022/03/05 10:19:26;;;;;;;;;;;;;;;11.21;48.94;99845.84;5050996;28;930;-59
2022/03/05 10:21:59;;;;;;;;;;;;;;;11.30;49.06;99845.41;5051069;28;1121;-59
2022/03/05 10:24:30;;;;;;;;;;;;;;;11.52;48.46;99840.50;5052722;28;926;-59
2022/03/05 10:26:57;;;;;;;;;;;;;;;11.52;49.41;99843.28;5054533;28;964;-59
2022/03/05 10:29:26;;;;;;;;;;;;;;;11.10;49.04;99836.84;5054374;28;1890;-59
2022/03/05 10:31:58;;;;;;;;;;;;;;;10.78;49.39;99837.81;5054459;28;874;-59
2022/03/05 10:34:25;;;;;;;;;;;;;;;10.18;49.89;99836.06;5054377;28;827;-59
2022/03/05 10:36:58;;;;;;;;;;;;;;;9.66;51.20;99833.78;5054430;28;863;-59
2022/03/05 10:39:25;;;;;;;;;;;;;;;9.45;52.60;99839.28;5054344;28;957;-59
2022/03/05 10:41:52;;;;;;;;;;;;;;;9.47;53.38;99843.22;5054349;28;585;-58
2022/03/05 10:44:19;;;;;;;;;;;;;;;9.70;53.00;99829.03;5053963;28;1275;-58
2022/03/05 10:46:46;;;;;;;;;;;;;;;9.54;52.89;99834.97;5054234;28;870;-59
2022/03/05 10:49:20;;;;;;;;;;;;;;;9.68;52.87;99828.66;5052738;28;1967;-59
2022/03/05 10:51:47;;;;;;;;;;;;;;;9.35;52.54;99833.41;5054102;28;816;-59
2022/03/05 10:54:24;;;;;;;;;;;;;;;9.21;53.63;99830.63;5054147;28;914;-59
2022/03/05 10:56:51;;;;;;;;;;;;;;;8.95;54.42;99835.31;5054553;28;816;-60
2022/03/05 10:59:21;;;;;;;;;;;;;;;8.86;54.33;99839.63;5054545;28;795;-60
2022/03/05 11:01:48;;;;;;;;;;;;;;;8.64;54.79;99836.00;5053972;28;902;-60
2022/03/05 11:04:14;;;;;;;;;;;;;;;8.50;55.42;99831.25;5053907;28;922;-59
2022/03/05 11:06:44;;;;;;;;;;;;;;;8.34;54.80;99835.09;5052578;28;760;-59
2022/03/05 11:09:11;;;;;;;;;;;;;;;8.35;55.05;99822.09;5053750;28;1947;-60
2022/03/05 11:11:40;;;;;;;;;;;;;;;8.40;55.38;99821.72;5053713;28;905;-59
2022/03/05 11:14:10;;;;;;;;;;;;;;;8.34;55.26;99817.75;5053576;28;811;-59
2022/03/05 11:16:37;;;;;;;;;;;;;;;8.22;54.90;99826.38;5053703;28;937;-59
2022/03/05 11:19:03;;;;;;;;;;;;;;;8.00;56.91;99819.94;5053587;28;854;-59
2022/03/05 11:21:30;;;;;;;;;;;;;;;7.92;57.22;99825.41;5053475;28;851;-60
2022/03/05 11:23:59;;;;;;;;;;;;;;;7.90;58.27;99830.50;5053611;28;807;-60
2022/03/05 11:26:28;;;;;;;;;;;;;;;7.79;59.20;99835.16;5053400;28;926;-60
2022/03/05 11:28:55;;;;;;;;;;;;;;;7.71;59.50;99823.31;5053399;28;1921;-60
2022/03/05 11:31:21;;;;;;;;;;;;;;;7.70;60.09;99829.19;5053328;28;815;-60
2022/03/05 11:33:48;;;;;;;;;;;;;;;7.67;60.02;99830.75;5053356;28;882;-60
2022/03/05 11:36:26;;;;;;;;;;;;;;;7.63;60.26;99835.41;5052976;28;872;-60
2022/03/05 11:39:14;;;;;;;;;;;;;;;7.51;59.58;99832.97;5052038;28;1206;-60
2022/03/05 11:41:54;;;;;;;;;;;;;;;7.48;60.07;99825.50;5052101;28;1834;-60
2022/03/05 11:44:22;;;;;;;;;;;;;;;7.59;61.62;99833.81;5053024;28;858;-60
2022/03/05 11:46:49;;;;;;;;;;;;;;;7.59;63.42;99836.56;5051868;28;1427;-59
2022/03/05 11:49:16;;;;;;;;;;;;;;;7.43;65.62;99834.88;5053012;28;1910;-60
2022/03/05 11:51:58;;;;;;;;;;;;;;;7.25;67.29;99845.72;5052862;28;979;-60
2022/03/05 11:54:26;;;;;;;;;;;;;;;6.96;69.93;99841.91;5052965;28;910;-60
2022/03/05 11:57:08;;;;;;;;;;;;;;;6.73;72.51;99847.53;5052808;28;841;-60
2022/03/05 11:59:36;;;;;;;;;;;;;;;6.43;73.13;99842.88;5052894;28;854;-59
2022/03/05 12:02:03;;;;;;;;;;;;;;;6.22;73.83;99840.66;5053021;28;866;-60
2022/03/05 12:04:30;;;;;;;;;;;;;;;6.04;74.51;99845.09;5052800;28;827;-60
2022/03/05 12:06:58;;;;;;;;;;;;;;;5.89;75.46;99844.88;5052565;28;788;-59
2022/03/05 12:09:32;;;;;;;;;;;;;;;5.80;75.60;99852.56;5052587;28;1889;-60
2022/03/05 12:12:01;;;;;;;;;;;;;;;5.72;76.67;99859.91;5052535;28;827;-60
2022/03/05 12:14:47;;;;;;;;;;;;;;;5.50;78.04;99850.56;5052426;28;882;-59
2022/03/05 12:17:19;;;;;;;;;;;;;;;5.06;78.70;99863.88;5052702;28;1031;-59
2022/03/05 12:19:45;;;;;;;;;;;;;;;4.79;80.37;99869.25;5052674;28;839;-59
2022/03/05 12:22:13;;;;;;;;;;;;;;;4.57;80.95;99872.72;5052392;28;890;-59
2022/03/05 12:24:40;;;;;;;;;;;;;;;4.40;82.36;99879.41;5052239;28;913;-59
2022/03/05 12:27:12;;;;;;;;;;;;;;;4.24;84.01;99873.97;5052304;28;854;-58
2022/03/05 12:29:48;;;;;;;;;;;;;;;4.09;84.31;99878.34;5051025;28;1950;-58
2022/03/05 12:32:15;;;;;;;;;;;;;;;3.88;85.30;99878.63;5052515;28;932;-58
2022/03/05 12:34:42;;;;;;;;;;;;;;;3.81;85.96;99876.53;5052218;28;839;-58
2022/03/05 12:37:08;;;;;;;;;;;;;;;3.68;86.36;99881.31;5052098;28;806;-57
2022/03/05 12:39:45;;;;;;;;;;;;;;;3.61;86.93;99883.09;5050738;28;2988;-57
2022/03/05 12:42:11;;;;;;;;;;;;;;;3.56;87.51;99873.19;5051885;28;1297;-58
2022/03/05 12:44:39;;;;;;;;;;;;;;;3.59;87.91;99871.72;5051993;28;815;-57
2022/03/05 12:47:06;;;;;;;;;;;;;;;3.46;88.55;99885.47;5051852;28;1111;-58
2022/03/05 12:49:32;;;;;;;;;;;;;;;3.35;89.00;99889.06;5052490;28;1902;-58
2022/03/05 12:52:00;;;;;;;;;;;;;;;3.33;89.64;99881.25;5051807;28;866;-58
2022/03/05 12:54:26;;;;;;;;;;;;;;;3.26;89.83;99900.16;5052271;28;838;-58
2022/03/05 12:56:56;;;;;;;;;;;;;;;3.39;91.06;99895.41;5051753;28;803;-58
2022/03/05 12:59:24;;;;;;;;;;;;;;;3.43;91.28;99890.84;5050728;28;876;-58
2022/03/05 13:01:51;;;;;;;;;;;;;;;3.58;90.77;99903.72;5051719;28;843;-58
2022/03/05 13:04:18;;;;;;;;;;;;;;;3.62;90.84;99901.06;5051640;28;1099;-58
2022/03/05 13:06:47;;;;;;;;;;;;;;;3.62;90.73;99893.66;5051748;28;882;-58
2022/03/05 13:09:17;;;;;;;;;;;;;;;3.50;90.75;99895.69;5051754;28;1918;-59
2022/03/05 13:11:47;;;;;;;;;;;;;;;3.45;91.36;99894.78;5051453;28;850;-59
2022/03/05 13:14:18;;;;;;;;;;;;;;;3.51;91.96;99898.06;5051602;28;847;-60